Time;durP1;ratioP1;P1;durP2;ratioP2;P2;SDS_P1;SDS_P2;PMS_P1;PMS_P2;Temp;Humidity;BMP_temperature;BMP_pressure;BME280_temperature;BME280_humidity;BME280_pressure;Samples;Min_cycle;Max_cycle;Signal;HPM_P1;HPM_P2
2022/04/08 00:00:06;;;;;;;;;1.33;1.00;;;;;10.71;49.95;100159.28;5059438;28;45235;-48
2022/04/08 00:02:31;;;;;;;;;0.67;0.67;;;;;10.71;49.87;100163.75;5059781;28;45487;-47
2022/04/08 00:04:57;;;;;;;;;4.67;0.67;;;;;10.78;49.92;100169.25;5059527;28;45416;-50
2022/04/08 00:07:22;;;;;;;;;1.33;0.00;;;;;10.75;49.57;100154.47;5058066;28;45352;-50
2022/04/08 00:09:48;;;;;;;;;2.00;0.00;;;;;10.77;49.49;100148.97;5059452;28;45241;-50
2022/04/08 00:12:13;;;;;;;;;0.00;0.00;;;;;10.85;49.49;100141.84;5059558;28;45426;-51
2022/04/08 00:14:38;;;;;;;;;2.00;0.00;;;;;10.73;49.60;100127.19;5059033;28;47019;-53
2022/04/08 00:17:04;;;;;;;;;0.00;0.00;;;;;10.90;49.46;100144.84;5059243;28;45421;-52
2022/04/08 00:19:31;;;;;;;;;0.00;0.00;;;;;10.97;49.42;100145.03;5059430;28;45568;-50
2022/04/08 00:21:56;;;;;;;;;1.00;1.00;;;;;10.98;49.53;100144.84;5059356;28;45335;-50
2022/04/08 00:24:21;;;;;;;;;1.00;1.00;;;;;11.01;49.39;100127.75;5058907;28;45385;-51
2022/04/08 00:26:47;;;;;;;;;0.00;0.00;;;;;10.89;49.07;100102.44;5059066;28;45545;-54
2022/04/08 00:29:15;;;;;;;;;0.00;0.00;;;;;11.05;49.49;100130.91;5059192;28;45462;-53
2022/04/08 00:31:41;;;;;;;;;3.67;0.00;;;;;11.06;49.83;100138.72;5059109;28;45424;-55
2022/04/08 00:34:06;;;;;;;;;1.00;1.00;;;;;11.07;49.57;100140.38;5058412;28;45308;-52
2022/04/08 00:36:31;;;;;;;;;0.00;0.00;;;;;11.10;49.56;100133.91;5058961;28;45257;-55
2022/04/08 00:38:57;;;;;;;;;2.33;0.00;;;;;11.10;49.68;100137.38;5059191;28;45387;-52
2022/04/08 00:41:23;;;;;;;;;0.33;0.00;;;;;11.11;49.50;100133.72;5058889;28;45350;-53
2022/04/08 00:43:48;;;;;;;;;0.00;0.00;;;;;11.10;49.52;100129.41;5058802;28;46914;-51
2022/04/08 00:46:14;;;;;;;;;1.00;0.00;;;;;11.11;49.92;100128.41;5058939;28;45407;-50
2022/04/08 00:48:39;;;;;;;;;1.00;0.33;;;;;11.11;49.88;100125.75;5058981;28;45267;-51
2022/04/08 00:51:06;;;;;;;;;0.00;0.00;;;;;11.15;50.06;100121.75;5059193;28;45397;-50
2022/04/08 00:53:34;;;;;;;;;0.67;0.00;;;;;11.19;50.05;100119.59;5058523;28;46206;-51
2022/04/08 00:56:02;;;;;;;;;0.33;0.33;;;;;11.21;49.90;100120.28;5058219;28;45367;-50
2022/04/08 00:58:28;;;;;;;;;0.33;0.33;;;;;11.24;50.33;100126.06;5058638;28;45340;-54
2022/04/08 01:00:53;;;;;;;;;1.00;1.00;;;;;11.20;50.38;100121.25;5058576;28;45257;-56
2022/04/08 01:03:18;;;;;;;;;2.00;0.00;;;;;11.24;50.07;100119.91;5058490;28;45233;-49
2022/04/08 01:05:44;;;;;;;;;0.00;0.00;;;;;11.21;50.21;100112.28;5058578;28;45220;-49
2022/04/08 01:08:12;;;;;;;;;2.00;0.67;;;;;11.16;50.15;100104.78;5058641;28;45342;-50
2022/04/08 01:10:39;;;;;;;;;0.00;0.00;;;;;11.22;50.12;100114.78;5058655;28;45616;-50
2022/04/08 01:13:04;;;;;;;;;1.00;0.67;;;;;11.26;50.27;100109.13;5058044;28;47106;-50
2022/04/08 01:15:30;;;;;;;;;1.00;1.00;;;;;11.26;50.09;100101.13;5058298;28;45301;-53
2022/04/08 01:17:55;;;;;;;;;4.00;1.67;;;;;11.26;50.16;100101.97;5058202;28;45634;-51
2022/04/08 01:20:20;;;;;;;;;4.00;1.00;;;;;11.28;50.43;100099.94;5058496;28;45277;-53
2022/04/08 01:22:46;;;;;;;;;2.00;0.00;;;;;11.30;50.39;100099.81;5058037;28;46100;-47
2022/04/08 01:25:12;;;;;;;;;0.00;0.00;;;;;11.32;50.41;100092.47;5058148;28;45417;-56
2022/04/08 01:27:39;;;;;;;;;1.00;1.00;;;;;11.32;50.17;100092.47;5058047;28;45265;-52
2022/04/08 01:30:07;;;;;;;;;1.00;0.00;;;;;11.27;50.53;100089.47;5058243;28;45316;-52
2022/04/08 01:32:33;;;;;;;;;0.00;0.00;;;;;11.27;50.51;100094.81;5057662;28;46006;-52
2022/04/08 01:34:58;;;;;;;;;0.00;0.00;;;;;11.22;50.04;100079.34;5057899;28;45334;-48
2022/04/08 01:37:24;;;;;;;;;0.00;0.00;;;;;11.24;50.23;100090.63;5058139;28;45316;-54
2022/04/08 01:39:49;;;;;;;;;1.67;0.00;;;;;11.18;50.51;100081.50;5058129;28;45392;-52
2022/04/08 01:42:16;;;;;;;;;0.00;0.00;;;;;11.16;50.43;100080.81;5057363;28;45448;-52
2022/04/08 01:44:41;;;;;;;;;0.00;0.00;;;;;11.03;50.94;100064.50;5057146;28;45281;-53
2022/04/08 01:47:07;;;;;;;;;0.33;0.00;;;;;11.12;50.73;100079.47;5057740;28;45393;-47
2022/04/08 01:49:32;;;;;;;;;0.00;0.00;;;;;11.08;50.83;100070.19;5057946;28;45258;-52
2022/04/08 01:51:58;;;;;;;;;0.00;0.00;;;;;11.10;50.49;100078.84;5057380;28;46917;-56
2022/04/08 01:54:24;;;;;;;;;0.00;0.00;;;;;11.08;50.54;100072.00;5057696;28;45376;-54
2022/04/08 01:56:49;;;;;;;;;2.33;0.33;;;;;11.09;50.74;100076.34;5057432;28;45415;-56
2022/04/08 01:59:15;;;;;;;;;0.00;0.00;;;;;10.93;50.59;100058.53;5058139;28;45392;-51
2022/04/08 02:01:41;;;;;;;;;1.67;0.00;;;;;11.05;50.88;100077.69;5057465;28;46122;-50
2022/04/08 02:04:07;;;;;;;;;0.00;0.00;;;;;11.04;50.88;100071.53;5057596;28;45409;-51
2022/04/08 02:06:35;;;;;;;;;4.00;0.67;;;;;11.02;51.07;100075.34;5057407;28;45375;-54
2022/04/08 02:09:00;;;;;;;;;1.00;0.00;;;;;10.91;51.13;100053.38;5057533;28;45470;-48
2022/04/08 02:11:26;;;;;;;;;1.00;1.00;;;;;11.01;50.96;100071.84;5057165;28;45371;-48
2022/04/08 02:13:51;;;;;;;;;6.00;1.00;;;;;10.91;51.18;100063.19;5057188;28;45327;-50
2022/04/08 02:16:17;;;;;;;;;0.00;0.00;;;;;11.01;51.29;100069.19;5057599;28;45256;-52
2022/04/08 02:18:42;;;;;;;;;0.00;0.00;;;;;11.01;51.29;100065.69;5057551;28;45217;-54
2022/04/08 02:21:09;;;;;;;;;2.33;1.33;;;;;10.86;51.58;100039.72;5057220;28;45411;-54
2022/04/08 02:23:36;;;;;;;;;0.00;0.00;;;;;10.98;51.36;100066.84;5055999;28;45263;-53
2022/04/08 02:26:02;;;;;;;;;2.00;1.00;;;;;10.98;51.19;100066.84;5057106;28;45478;-52
2022/04/08 02:28:27;;;;;;;;;0.33;0.00;;;;;10.93;51.30;100054.03;5057237;28;45281;-49
2022/04/08 02:30:54;;;;;;;;;2.33;0.33;;;;;10.97;51.65;100066.03;5056809;28;46608;-52
2022/04/08 02:33:20;;;;;;;;;2.00;1.00;;;;;10.96;51.71;100056.38;5057185;28;45412;-48
2022/04/08 02:35:45;;;;;;;;;0.00;0.00;;;;;10.97;51.40;100047.38;5057220;28;45458;-52
2022/04/08 02:38:11;;;;;;;;;1.00;1.00;;;;;10.93;51.77;100042.56;5057317;28;45566;-50
2022/04/08 02:40:36;;;;;;;;;1.00;0.00;;;;;10.96;51.83;100047.56;5057067;28;46078;-53
2022/04/08 02:43:03;;;;;;;;;0.00;0.00;;;;;10.96;52.22;100036.94;5056870;28;45388;-54
2022/04/08 02:45:29;;;;;;;;;1.33;0.00;;;;;10.96;52.06;100044.91;5057255;28;45274;-55
2022/04/08 02:47:54;;;;;;;;;0.00;0.00;;;;;10.98;52.58;100045.56;5057214;28;45331;-51
2022/04/08 02:50:20;;;;;;;;;1.00;0.00;;;;;10.96;52.26;100043.06;5056731;28;47341;-55
2022/04/08 02:52:45;;;;;;;;;0.67;0.00;;;;;10.96;52.11;100032.44;5056779;28;45428;-50
2022/04/08 02:55:10;;;;;;;;;1.67;0.00;;;;;10.91;52.56;100029.44;5057091;28;45638;-50
2022/04/08 02:57:45;;;;;;;;;2.00;0.00;;;;;10.94;52.19;100026.44;5058845;28;45273;-50
2022/04/08 03:00:12;;;;;;;;;3.00;2.00;;;;;10.99;52.29;100029.41;5060374;28;46344;-54
2022/04/08 03:02:38;;;;;;;;;1.67;1.33;;;;;10.99;52.59;100028.59;5060323;28;45425;-49
2022/04/08 03:05:06;;;;;;;;;1.00;0.00;;;;;10.97;52.67;100023.44;5060469;28;45318;-54
2022/04/08 03:07:32;;;;;;;;;2.00;1.00;;;;;10.96;52.73;100016.47;5060865;28;45403;-50
2022/04/08 03:09:57;;;;;;;;;1.00;1.00;;;;;10.99;53.06;100026.75;5060146;28;46118;-49
2022/04/08 03:12:22;;;;;;;;;0.00;0.00;;;;;10.98;52.51;100019.78;5058785;28;45337;-55
2022/04/08 03:14:48;;;;;;;;;1.00;0.00;;;;;10.98;52.27;100008.31;5060151;28;45261;-53
2022/04/08 03:17:13;;;;;;;;;0.67;0.00;;;;;10.97;52.94;100015.47;5060420;28;45398;-50
2022/04/08 03:19:38;;;;;;;;;2.00;1.00;;;;;10.97;52.78;100012.78;5060227;28;45463;-50
2022/04/08 03:22:06;;;;;;;;;0.00;0.00;;;;;10.99;52.91;100016.09;5060049;28;45411;-50
2022/04/08 03:24:31;;;;;;;;;1.33;1.33;;;;;11.00;53.19;100011.66;5060195;28;45442;-49
2022/04/08 03:26:57;;;;;;;;;3.00;1.00;;;;;10.89;53.25;99994.16;5060093;28;45610;-48
2022/04/08 03:29:23;;;;;;;;;0.00;0.00;;;;;10.98;53.57;100005.63;5059651;28;45676;-47
2022/04/08 03:31:49;;;;;;;;;0.00;0.00;;;;;10.95;54.03;100006.78;5059579;28;45419;-50
2022/04/08 03:34:14;;;;;;;;;2.00;0.00;;;;;10.94;53.37;99999.81;5059882;28;45320;-48
2022/04/08 03:36:39;;;;;;;;;2.00;0.00;;;;;10.95;54.41;100001.47;5060079;28;45327;-54
2022/04/08 03:39:05;;;;;;;;;0.00;0.00;;;;;10.83;54.28;99992.19;5059813;28;46886;-54
2022/04/08 03:41:30;;;;;;;;;3.33;1.00;;;;;10.94;55.50;100006.97;5059787;28;45363;-56
2022/04/08 03:43:55;;;;;;;;;2.00;0.00;;;;;10.90;55.52;100003.81;5059871;28;45463;-50
2022/04/08 03:46:21;;;;;;;;;2.00;0.00;;;;;10.87;56.71;99990.00;5059793;28;45205;-56
2022/04/08 03:48:46;;;;;;;;;1.33;1.33;;;;;10.89;56.05;99993.34;5059685;28;46074;-54
2022/04/08 03:51:11;;;;;;;;;0.67;0.00;;;;;10.87;57.48;99988.19;5059587;28;45440;-53
2022/04/08 03:53:37;;;;;;;;;0.00;0.00;;;;;10.78;57.56;99975.88;5059543;28;45238;-51
2022/04/08 03:56:02;;;;;;;;;1.00;1.00;;;;;10.69;58.52;99961.75;5059701;28;45250;-55
2022/04/08 03:58:29;;;;;;;;;5.00;2.00;;;;;10.65;59.58;99957.75;5059230;28;46058;-50
2022/04/08 04:00:54;;;;;;;;;1.33;1.00;;;;;10.61;59.68;99959.06;5057980;28;45478;-49
2022/04/08 04:03:19;;;;;;;;;3.00;0.00;;;;;10.48;60.52;99938.31;5059793;28;45253;-51
2022/04/08 04:05:45;;;;;;;;;0.00;0.00;;;;;10.56;60.84;99944.63;5059861;28;45250;-56
2022/04/08 04:08:18;;;;;;;;;1.67;1.00;;;;;10.46;60.92;99942.16;5058572;28;45280;-56
2022/04/08 04:10:44;;;;;;;;;1.33;1.33;;;;;10.42;59.84;99923.03;5059361;28;45391;-56
2022/04/08 04:13:09;;;;;;;;;7.00;1.00;;;;;10.50;61.20;99924.84;5059228;28;45263;-56
2022/04/08 04:15:35;;;;;;;;;4.00;0.00;;;;;10.47;61.50;99930.50;5059168;28;45502;-54
2022/04/08 04:18:00;;;;;;;;;1.00;1.00;;;;;10.42;61.26;99907.06;5058984;28;45348;-51
2022/04/08 04:20:26;;;;;;;;;0.00;0.00;;;;;10.45;61.30;99911.25;5059059;28;45357;-50
2022/04/08 04:22:53;;;;;;;;;3.00;1.00;;;;;10.41;62.01;99905.41;5059293;28;45348;-57
2022/04/08 04:25:18;;;;;;;;;2.33;1.00;;;;;10.28;61.70;99870.53;5059255;28;45465;-55
2022/04/08 04:27:44;;;;;;;;;4.33;0.67;;;;;10.32;61.65;99873.66;5058749;28;46610;-48
2022/04/08 04:30:10;;;;;;;;;3.67;0.67;;;;;10.38;62.03;99887.13;5058667;28;45403;-53
2022/04/08 04:32:35;;;;;;;;;2.00;0.00;;;;;10.40;60.67;99885.13;5058832;28;45305;-54
2022/04/08 04:35:06;;;;;;;;;6.00;1.00;;;;;10.38;62.09;99871.19;5059362;28;45304;-51
2022/04/08 04:37:38;;;;;;;;;1.00;1.00;;;;;10.39;61.56;99872.00;5058736;28;46240;-54
2022/04/08 04:40:05;;;;;;;;;2.33;0.67;;;;;10.31;62.04;99856.88;5058686;28;45325;-50
2022/04/08 04:42:30;;;;;;;;;0.00;0.00;;;;;10.24;61.80;99843.44;5058923;28;45315;-51
2022/04/08 04:44:56;;;;;;;;;1.00;1.00;;;;;10.38;61.63;99859.72;5058821;28;45244;-47
2022/04/08 04:47:22;;;;;;;;;1.33;1.33;;;;;10.40;61.82;99863.03;5058728;28;46216;-52
2022/04/08 04:49:48;;;;;;;;;0.67;0.67;;;;;10.39;61.81;99858.72;5058507;28;45275;-54
2022/04/08 04:52:13;;;;;;;;;0.00;0.00;;;;;10.42;60.39;99850.41;5058684;28;45380;-53
2022/04/08 04:54:40;;;;;;;;;2.33;1.00;;;;;10.38;62.06;99841.94;5058768;28;45451;-57
2022/04/08 04:57:06;;;;;;;;;0.00;0.00;;;;;10.40;61.46;99825.81;5058311;28;46294;-47
2022/04/08 04:59:33;;;;;;;;;2.33;2.33;;;;;10.39;61.38;99824.16;5058297;28;45407;-49
2022/04/08 05:01:58;;;;;;;;;0.00;0.00;;;;;10.33;61.81;99816.88;5058711;28;45298;-56
2022/04/08 05:04:23;;;;;;;;;2.00;1.00;;;;;10.30;62.60;99804.72;5058577;28;45221;-55
2022/04/08 05:06:49;;;;;;;;;1.00;1.00;;;;;10.32;62.08;99808.03;5058333;28;46044;-51
2022/04/08 05:09:14;;;;;;;;;1.00;1.00;;;;;10.35;62.39;99793.59;5058421;28;45431;-55
2022/04/08 05:11:39;;;;;;;;;2.00;0.00;;;;;10.34;62.12;99790.09;5058612;28;45305;-55
2022/04/08 05:14:05;;;;;;;;;1.33;1.00;;;;;10.31;62.63;99786.94;5058554;28;45355;-53
2022/04/08 05:16:30;;;;;;;;;6.67;1.00;;;;;10.20;62.93;99770.31;5056765;28;47036;-54
2022/04/08 05:18:56;;;;;;;;;2.67;0.33;;;;;10.18;63.35;99769.66;5056488;28;45892;-53
2022/04/08 05:21:22;;;;;;;;;1.00;1.00;;;;;10.09;62.82;99753.88;5057778;28;45345;-54
2022/04/08 05:23:47;;;;;;;;;2.33;0.67;;;;;10.20;62.54;99765.00;5058356;28;45319;-55
2022/04/08 05:26:14;;;;;;;;;0.00;0.00;;;;;10.17;63.32;99756.53;5058033;28;46351;-53
2022/04/08 05:28:40;;;;;;;;;1.67;1.67;;;;;10.22;63.39;99762.16;5058028;28;45490;-52
2022/04/08 05:31:05;;;;;;;;;5.67;1.00;;;;;10.21;61.97;99756.03;5058080;28;45940;-50
2022/04/08 05:33:30;;;;;;;;;2.00;2.00;;;;;10.16;63.19;99758.38;5058217;28;45339;-50
2022/04/08 05:35:56;;;;;;;;;1.00;1.00;;;;;10.13;62.97;99747.25;5057915;28;46168;-55
2022/04/08 05:38:21;;;;;;;;;1.00;1.00;;;;;10.06;63.47;99740.94;5057853;28;45324;-55
2022/04/08 05:40:49;;;;;;;;;3.67;3.00;;;;;10.07;63.66;99742.56;5058051;28;45639;-51
2022/04/08 05:43:15;;;;;;;;;1.00;1.00;;;;;10.04;63.40;99730.47;5058095;28;45225;-54
2022/04/08 05:45:40;;;;;;;;;1.33;1.33;;;;;10.04;64.01;99729.66;5057303;28;46126;-50
2022/04/08 05:48:07;;;;;;;;;3.67;1.00;;;;;10.05;64.29;99723.34;5057845;28;45308;-55
2022/04/08 05:50:32;;;;;;;;;1.00;1.00;;;;;10.03;65.23;99717.34;5057670;28;45395;-55
2022/04/08 05:52:58;;;;;;;;;3.00;3.00;;;;;10.00;65.41;99714.03;5057831;28;45517;-52
2022/04/08 05:55:23;;;;;;;;;1.00;1.00;;;;;9.94;66.66;99705.91;5057505;28;46039;-54
2022/04/08 05:57:49;;;;;;;;;7.00;3.00;;;;;9.91;66.21;99700.94;5055765;28;45482;-55
2022/04/08 06:00:15;;;;;;;;;6.50;1.50;;;;;9.89;65.39;99700.25;5057774;28;45492;-53
2022/04/08 06:02:47;;;;;;;;;7.50;2.00;;;;;9.89;65.57;99695.78;5057534;28;45320;-48
2022/04/08 06:05:15;;;;;;;;;2.50;2.25;;;;;9.85;65.68;99680.34;5057101;28;46370;-53
2022/04/08 06:07:49;;;;;;;;;3.00;3.00;;;;;9.87;65.73;99681.03;5057199;28;45201;-54
2022/04/08 06:10:18;;;;;;;;;2.25;2.25;;;;;9.85;65.73;99680.34;5057465;28;45727;-51
2022/04/08 06:12:45;;;;;;;;;1.33;1.33;;;;;9.75;66.74;99667.25;5057308;28;45477;-54
2022/04/08 06:15:11;;;;;;;;;1.67;1.00;;;;;9.75;65.88;99660.09;5057140;28;46227;-54
2022/04/08 06:17:37;;;;;;;;;2.00;2.00;;;;;9.73;66.58;99651.50;5057033;28;45351;-49
2022/04/08 06:20:05;;;;;;;;;5.00;2.00;;;;;9.65;67.06;99648.84;5057402;28;45324;-52
2022/04/08 06:22:30;;;;;;;;;1.50;1.50;;;;;9.63;67.37;99645.50;5056824;28;45472;-50
2022/04/08 06:24:56;;;;;;;;;2.00;1.00;;;;;9.59;67.00;99638.06;5057208;28;45329;-50
2022/04/08 06:27:21;;;;;;;;;5.00;1.00;;;;;9.65;66.74;99627.59;5057190;28;45396;-51
2022/04/08 06:29:46;;;;;;;;;1.50;1.50;;;;;9.63;66.97;99624.28;5057263;28;45340;-50
2022/04/08 06:32:12;;;;;;;;;1.00;0.00;;;;;9.63;67.67;99618.97;5056777;28;45301;-51
2022/04/08 06:34:37;;;;;;;;;4.33;2.33;;;;;9.62;67.63;99606.69;5057002;28;46107;-52
2022/04/08 06:37:03;;;;;;;;;2.25;1.50;;;;;9.65;67.78;99610.81;5057061;28;45425;-56
2022/04/08 06:39:28;;;;;;;;;1.00;1.00;;;;;9.62;68.43;99609.34;5057261;28;45269;-50
2022/04/08 06:41:53;;;;;;;;;3.00;1.00;;;;;9.62;69.11;99600.56;5057263;28;45433;-50
2022/04/08 06:44:19;;;;;;;;;5.25;1.00;;;;;9.63;67.97;99600.38;5056845;28;45313;-50
2022/04/08 06:46:44;;;;;;;;;1.00;1.00;;;;;9.59;67.06;99601.72;5056723;28;45344;-55
2022/04/08 06:49:10;;;;;;;;;3.50;2.00;;;;;9.58;67.16;99594.75;5056806;28;45248;-50
2022/04/08 06:51:35;;;;;;;;;6.00;2.00;;;;;9.59;66.25;99583.13;5057059;28;45305;-51
2022/04/08 06:54:00;;;;;;;;;4.00;1.50;;;;;9.66;66.77;99588.59;5056529;28;45302;-51
2022/04/08 06:56:26;;;;;;;;;1.75;1.75;;;;;9.71;66.41;99595.06;5056482;28;45347;-55
2022/04/08 06:58:51;;;;;;;;;2.50;2.50;;;;;9.66;66.50;99592.06;5056980;28;45663;-55
2022/04/08 07:01:17;;;;;;;;;3.75;1.50;;;;;9.65;67.73;99593.09;5056757;28;45372;-49
2022/04/08 07:03:42;;;;;;;;;5.50;2.00;;;;;9.55;67.41;99586.28;5056805;28;45334;-54
2022/04/08 07:06:07;;;;;;;;;7.50;5.00;;;;;9.52;68.99;99592.75;5056643;28;45387;-51
2022/04/08 07:08:33;;;;;;;;;6.00;4.50;;;;;9.48;70.11;99599.38;5056773;28;45456;-54
2022/04/08 07:10:59;;;;;;;;;5.50;3.00;;;;;9.39;70.58;99593.25;5056874;28;45531;-53
2022/04/08 07:13:25;;;;;;;;;2.25;2.00;;;;;9.40;70.50;99594.13;5056311;28;47097;-54
2022/04/08 07:15:50;;;;;;;;;5.25;4.00;;;;;9.35;68.53;99593.75;5055250;28;45538;-55
2022/04/08 07:18:15;;;;;;;;;6.00;1.50;;;;;9.38;68.04;99593.44;5056508;28;45423;-54
2022/04/08 07:20:41;;;;;;;;;2.50;2.00;;;;;9.40;71.27;99591.47;5056764;28;45436;-55
2022/04/08 07:23:06;;;;;;;;;2.75;1.00;;;;;9.34;69.10;99570.88;5056590;28;46379;-54
2022/04/08 07:25:32;;;;;;;;;2.00;2.00;;;;;9.35;70.43;99577.84;5056631;28;45405;-49
2022/04/08 07:28:00;;;;;;;;;3.00;2.75;;;;;9.37;69.87;99570.56;5056964;28;45896;-53
2022/04/08 07:30:27;;;;;;;;;2.75;1.00;;;;;9.38;69.78;99559.75;5056721;28;45237;-53
2022/04/08 07:32:54;;;;;;;;;3.00;3.00;;;;;9.25;69.47;99527.59;5056047;28;46246;-54
2022/04/08 07:35:21;;;;;;;;;2.25;1.00;;;;;9.37;67.34;99539.53;5056377;28;45468;-54
2022/04/08 07:37:47;;;;;;;;;2.00;1.25;;;;;9.33;67.82;99532.91;5056374;28;45286;-55
2022/04/08 07:40:13;;;;;;;;;5.25;1.75;;;;;9.33;68.79;99530.25;5056682;28;45190;-55
2022/04/08 07:42:39;;;;;;;;;1.00;1.00;;;;;9.33;69.34;99522.28;5056859;28;46150;-49
2022/04/08 07:45:06;;;;;;;;;1.00;1.00;;;;;9.33;69.23;99509.00;5059796;28;45440;-52
2022/04/08 07:47:32;;;;;;;;;3.25;3.00;;;;;9.39;69.90;99492.41;5060264;28;45425;-55
2022/04/08 07:50:02;;;;;;;;;2.00;1.75;;;;;9.37;69.79;99473.19;5060031;28;45345;-54
2022/04/08 07:52:28;;;;;;;;;1.33;1.33;;;;;9.45;69.85;99464.38;5059657;28;45409;-49
2022/04/08 07:54:54;;;;;;;;;2.00;2.00;;;;;9.44;68.32;99460.06;5059668;28;45290;-53
2022/04/08 07:57:20;;;;;;;;;3.00;2.00;;;;;9.41;69.27;99471.00;5059721;28;45560;-52
2022/04/08 07:59:46;;;;;;;;;1.75;1.75;;;;;9.37;69.77;99481.13;5059994;28;45331;-47
2022/04/08 08:02:11;;;;;;;;;2.00;2.00;;;;;9.28;68.89;99473.38;5059507;28;46417;-53
2022/04/08 08:04:37;;;;;;;;;4.75;2.50;;;;;9.27;70.67;99472.56;5059723;28;45539;-53
2022/04/08 08:07:03;;;;;;;;;1.00;1.00;;;;;9.26;69.65;99465.56;5059896;28;45341;-49
2022/04/08 08:09:28;;;;;;;;;2.00;2.00;;;;;9.24;70.95;99456.97;5059873;28;45269;-54
2022/04/08 08:11:54;;;;;;;;;5.50;1.25;;;;;9.19;70.64;99457.47;5059568;28;45384;-54
2022/04/08 08:14:19;;;;;;;;;1.75;1.75;;;;;9.27;68.60;99445.16;5059351;28;45353;-54
2022/04/08 08:16:44;;;;;;;;;3.00;2.50;;;;;9.29;69.67;99428.09;5059379;28;45308;-54
2022/04/08 08:19:11;;;;;;;;;4.25;2.75;;;;;9.27;69.24;99415.97;5059495;28;45412;-56
2022/04/08 08:21:36;;;;;;;;;5.00;2.00;;;;;9.11;69.95;99396.47;5059097;28;46046;-54
2022/04/08 08:24:02;;;;;;;;;3.25;2.00;;;;;9.05;68.65;99397.13;5059195;28;45419;-55
2022/04/08 08:26:29;;;;;;;;;1.50;1.50;;;;;9.06;68.42;99417.38;5059182;28;45311;-53
2022/04/08 08:28:55;;;;;;;;;3.00;2.00;;;;;9.01;68.27;99401.13;5059206;28;45447;-54
2022/04/08 08:31:22;;;;;;;;;1.00;1.00;;;;;8.95;67.55;99394.69;5058838;28;46188;-57
2022/04/08 08:33:47;;;;;;;;;3.00;1.00;;;;;8.84;67.51;99371.16;5058585;28;45541;-52
2022/04/08 08:36:13;;;;;;;;;1.25;1.00;;;;;8.91;69.22;99389.88;5059053;28;45342;-50
2022/04/08 08:38:38;;;;;;;;;1.00;1.00;;;;;8.90;69.38;99390.88;5059245;28;45459;-51
2022/04/08 08:41:05;;;;;;;;;1.00;1.00;;;;;8.92;68.70;99391.53;5058786;28;46046;-50
2022/04/08 08:43:31;;;;;;;;;3.50;1.00;;;;;8.91;69.46;99385.41;5058918;28;45316;-53
2022/04/08 08:45:56;;;;;;;;;3.50;2.00;;;;;8.87;68.15;99383.25;5058728;28;45380;-54
2022/04/08 08:48:23;;;;;;;;;4.00;1.00;;;;;8.79;69.11;99360.22;5059040;28;45316;-53
2022/04/08 08:50:52;;;;;;;;;0.75;0.75;;;;;8.77;67.69;99382.63;5058592;28;46338;-55
2022/04/08 08:53:19;;;;;;;;;1.00;1.00;;;;;8.75;69.23;99378.28;5058441;28;45438;-55
2022/04/08 08:55:48;;;;;;;;;1.00;1.00;;;;;8.76;67.94;99360.56;5059193;28;45510;-53
2022/04/08 08:58:13;;;;;;;;;1.25;1.25;;;;;8.75;68.84;99340.34;5058798;28;45262;-52
2022/04/08 09:00:39;;;;;;;;;2.50;1.00;;;;;8.78;69.88;99347.97;5058329;28;45482;-55
2022/04/08 09:03:04;;;;;;;;;2.00;2.00;;;;;8.84;69.97;99334.03;5058286;28;45340;-53
2022/04/08 09:05:30;;;;;;;;;2.25;2.25;;;;;8.87;69.88;99312.47;5058705;28;45889;-53
2022/04/08 09:07:58;;;;;;;;;1.50;1.00;;;;;8.90;68.78;99306.84;5058958;28;45285;-52
2022/04/08 09:10:43;;;;;;;;;0.50;0.50;;;;;8.91;70.20;99294.41;5058277;28;46373;-53
2022/04/08 09:13:09;;;;;;;;;3.25;0.75;;;;;8.91;68.41;99297.06;5058291;28;45407;-52
2022/04/08 09:15:40;;;;;;;;;1.00;1.00;;;;;8.74;68.38;99309.53;5058414;28;45293;-53
2022/04/08 09:18:10;;;;;;;;;2.50;1.00;;;;;8.69;70.02;99299.44;5058401;28;45303;-54
2022/04/08 09:20:40;;;;;;;;;1.75;1.75;;;;;8.75;68.65;99276.72;5058143;28;46273;-53
2022/04/08 09:23:07;;;;;;;;;2.25;1.00;;;;;8.73;68.80;99262.81;5058006;28;45444;-51
2022/04/08 09:25:33;;;;;;;;;1.50;1.50;;;;;8.69;69.74;99243.78;5058275;28;45373;-52
2022/04/08 09:28:05;;;;;;;;;2.00;0.50;;;;;8.61;69.85;99241.16;5058403;28;45476;-53
2022/04/08 09:30:30;;;;;;;;;0.00;0.00;;;;;8.59;70.26;99253.75;5058028;28;46114;-53
2022/04/08 09:32:56;;;;;;;;;1.00;1.00;;;;;8.60;70.13;99265.19;5058248;28;45213;-51
2022/04/08 09:35:24;;;;;;;;;2.75;2.75;;;;;8.47;70.34;99244.53;5057989;28;45483;-53
2022/04/08 09:38:00;;;;;;;;;2.25;2.25;;;;;8.59;70.34;99260.88;5058399;28;45362;-53
2022/04/08 09:40:25;;;;;;;;;3.25;1.50;;;;;8.58;71.19;99270.66;5058185;28;46129;-51
2022/04/08 09:42:53;;;;;;;;;6.00;2.00;;;;;8.52;70.46;99257.25;5057863;28;45472;-52
2022/04/08 09:45:32;;;;;;;;;2.50;1.75;;;;;8.59;70.30;99267.00;5058471;28;45260;-54
2022/04/08 09:48:05;;;;;;;;;3.75;1.75;;;;;8.59;69.26;99279.41;5057220;28;45428;-54
2022/04/08 09:50:31;;;;;;;;;1.00;1.00;;;;;8.55;69.83;99289.53;5057581;28;46424;-52
2022/04/08 09:52:57;;;;;;;;;1.00;1.00;;;;;8.50;69.88;99289.22;5058351;27;45217;-52
2022/04/08 09:55:25;;;;;;;;;2.25;1.00;;;;;8.47;71.15;99298.34;5057417;28;45384;-53
2022/04/08 09:57:55;;;;;;;;;1.00;1.00;;;;;8.51;70.07;99304.09;5057826;28;45378;-58
2022/04/08 10:00:21;;;;;;;;;2.00;2.00;;;;;8.55;70.66;99286.88;5057306;28;46124;-59
2022/04/08 10:02:49;;;;;;;;;1.75;1.75;;;;;8.58;68.95;99256.56;5057572;28;45425;-58
2022/04/08 10:05:16;;;;;;;;;4.00;0.00;;;;;8.53;68.82;99221.81;5056849;28;45478;-58
2022/04/08 10:07:45;;;;;;;;;1.75;1.75;;;;;8.58;69.80;99225.59;5057729;28;45301;-57
2022/04/08 10:10:18;;;;;;;;;2.00;2.00;;;;;8.58;69.14;99253.91;5059079;28;45298;-53
2022/04/08 10:12:59;;;;;;;;;4.00;1.00;;;;;8.53;70.22;99312.75;5058634;28;45191;-53
2022/04/08 10:15:39;;;;;;;;;1.25;1.00;;;;;8.52;70.71;99300.50;5059217;28;45355;-57
2022/04/08 10:18:06;;;;;;;;;2.25;2.25;;;;;8.59;71.00;99277.59;5059280;28;45284;-51
2022/04/08 10:20:33;;;;;;;;;1.00;1.00;;;;;8.62;70.90;99260.53;5056688;28;46113;-51
2022/04/08 10:23:10;;;;;;;;;2.00;2.00;;;;;8.65;70.34;99258.38;5058512;28;45563;-56
2022/04/08 10:25:38;;;;;;;;;1.00;1.00;;;;;8.66;70.13;99275.09;5058749;28;45403;-51
2022/04/08 10:28:05;;;;;;;;;1.00;1.00;;;;;8.65;69.50;99246.94;5059346;28;45373;-53
2022/04/08 10:30:35;;;;;;;;;1.00;1.00;;;;;8.66;68.83;99224.72;5058668;28;46130;-53
2022/04/08 10:33:02;;;;;;;;;3.25;2.00;;;;;8.68;68.99;99228.88;5058350;28;45347;-57
2022/04/08 10:35:28;;;;;;;;;1.00;1.00;;;;;8.77;69.64;99231.50;5058798;28;45265;-55
2022/04/08 10:37:58;;;;;;;;;2.25;2.25;;;;;8.77;68.90;99220.91;5058353;28;45236;-59
2022/04/08 10:40:39;;;;;;;;;1.50;1.50;;;;;8.92;69.36;99224.44;5056874;28;46196;-50
2022/04/08 10:43:07;;;;;;;;;2.25;2.25;;;;;8.81;68.55;99177.13;5056925;28;45331;-52
2022/04/08 10:45:34;;;;;;;;;3.50;3.50;;;;;8.89;69.75;99190.31;5056820;28;45395;-53
2022/04/08 10:48:20;;;;;;;;;6.25;2.00;;;;;8.82;69.02;99176.94;5057199;28;45400;-50
2022/04/08 10:50:46;;;;;;;;;4.50;2.00;;;;;8.74;68.61;99150.47;5056302;28;45508;-53
2022/04/08 10:53:21;;;;;;;;;5.75;1.00;;;;;8.68;69.15;99130.78;5056844;28;45366;-54
2022/04/08 10:55:55;;;;;;;;;1.00;1.00;;;;;8.74;68.96;99138.03;5056756;28;45392;-59
2022/04/08 10:58:35;;;;;;;;;4.00;2.00;;;;;8.94;69.43;99140.25;5056808;28;45552;-53
2022/04/08 11:01:12;;;;;;;;;5.25;3.25;;;;;9.08;70.63;99163.34;5056634;28;46200;-58
2022/04/08 11:03:41;;;;;;;;;7.25;4.00;;;;;9.31;69.95;99147.44;5056861;28;45488;-53
2022/04/08 11:06:07;;;;;;;;;5.00;4.00;;;;;9.37;68.68;99157.34;5056553;28;45332;-54
2022/04/08 11:08:33;;;;;;;;;4.75;4.75;;;;;9.37;69.39;99178.59;5057008;28;45443;-57
2022/04/08 11:10:59;;;;;;;;;3.00;3.00;;;;;9.31;68.89;99181.09;5057470;28;45368;-57
2022/04/08 11:13:24;;;;;;;;;3.00;3.00;;;;;9.25;69.20;99172.84;5056997;28;45531;-54
2022/04/08 11:15:50;;;;;;;;;2.25;2.25;;;;;9.13;68.52;99181.41;5057039;28;45179;-58
2022/04/08 11:18:16;;;;;;;;;5.50;5.00;;;;;9.11;69.40;99186.91;5058458;28;45383;-58
2022/04/08 11:20:48;;;;;;;;;5.00;2.00;;;;;9.24;68.99;99165.91;5060085;28;45404;-54
2022/04/08 11:23:13;;;;;;;;;5.50;5.50;;;;;9.41;69.46;99173.75;5058909;28;45252;-55
2022/04/08 11:25:38;;;;;;;;;6.00;6.00;;;;;9.59;68.79;99155.69;5060150;28;45275;-53
2022/04/08 11:28:06;;;;;;;;;8.00;6.50;;;;;9.61;68.29;99168.78;5060282;28;45307;-56
2022/04/08 11:30:34;;;;;;;;;10.75;3.00;;;;;9.56;68.19;99168.47;5060075;28;45247;-57